sensor_id;sensor_type;location;lat;lon;timestamp;P1;durP1;ratioP1;P2;durP2;ratioP2
58615;SDS011;44385;51.992;4.206;2023-04-08T00:01:02;22.67;;;13.27;;
58615;SDS011;44385;51.992;4.206;2023-04-08T00:03:29;23.35;;;13.80;;
58615;SDS011;44385;51.992;4.206;2023-04-08T00:05:56;20.67;;;14.25;;
58615;SDS011;44385;51.992;4.206;2023-04-08T00:08:27;26.10;;;14.27;;
58615;SDS011;44385;51.992;4.206;2023-04-08T00:10:53;24.13;;;15.27;;
58615;SDS011;44385;51.992;4.206;2023-04-08T00:13:20;33.53;;;16.27;;
58615;SDS011;44385;51.992;4.206;2023-04-08T00:15:46;25.13;;;15.60;;
58615;SDS011;44385;51.992;4.206;2023-04-08T00:18:15;25.33;;;15.90;;
58615;SDS011;44385;51.992;4.206;2023-04-08T00:20:42;30.10;;;15.10;;
58615;SDS011;44385;51.992;4.206;2023-04-08T00:23:08;28.42;;;16.63;;
58615;SDS011;44385;51.992;4.206;2023-04-08T00:25:35;24.58;;;16.00;;
58615;SDS011;44385;51.992;4.206;2023-04-08T00:28:01;35.72;;;17.70;;
58615;SDS011;44385;51.992;4.206;2023-04-08T00:30:28;30.52;;;17.58;;
58615;SDS011;44385;51.992;4.206;2023-04-08T00:32:55;29.83;;;17.95;;
58615;SDS011;44385;51.992;4.206;2023-04-08T00:35:23;29.75;;;16.48;;
58615;SDS011;44385;51.992;4.206;2023-04-08T00:37:50;37.22;;;19.13;;
58615;SDS011;44385;51.992;4.206;2023-04-08T00:40:16;30.98;;;18.20;;
58615;SDS011;44385;51.992;4.206;2023-04-08T00:42:43;32.67;;;19.25;;
58615;SDS011;44385;51.992;4.206;2023-04-08T00:45:10;34.05;;;18.48;;
58615;SDS011;44385;51.992;4.206;2023-04-08T00:47:37;34.03;;;20.38;;
58615;SDS011;44385;51.992;4.206;2023-04-08T00:50:03;34.75;;;20.98;;
58615;SDS011;44385;51.992;4.206;2023-04-08T00:52:32;38.45;;;22.17;;
58615;SDS011;44385;51.992;4.206;2023-04-08T00:54:59;41.15;;;23.95;;
58615;SDS011;44385;51.992;4.206;2023-04-08T00:57:25;42.10;;;23.30;;
58615;SDS011;44385;51.992;4.206;2023-04-08T00:59:52;39.75;;;24.05;;
58615;SDS011;44385;51.992;4.206;2023-04-08T01:02:20;41.65;;;24.25;;
58615;SDS011;44385;51.992;4.206;2023-04-08T01:04:54;43.15;;;25.13;;
58615;SDS011;44385;51.992;4.206;2023-04-08T01:07:23;45.38;;;26.10;;
58615;SDS011;44385;51.992;4.206;2023-04-08T01:09:52;47.17;;;27.92;;
58615;SDS011;44385;51.992;4.206;2023-04-08T01:12:20;47.42;;;29.52;;
58615;SDS011;44385;51.992;4.206;2023-04-08T01:14:47;48.95;;;29.48;;
58615;SDS011;44385;51.992;4.206;2023-04-08T01:17:15;47.40;;;28.55;;
58615;SDS011;44385;51.992;4.206;2023-04-08T01:19:43;46.03;;;28.15;;
58615;SDS011;44385;51.992;4.206;2023-04-08T01:22:14;50.33;;;28.98;;
58615;SDS011;44385;51.992;4.206;2023-04-08T01:24:44;55.05;;;30.00;;
58615;SDS011;44385;51.992;4.206;2023-04-08T01:27:12;54.65;;;31.05;;
58615;SDS011;44385;51.992;4.206;2023-04-08T01:29:39;52.58;;;30.02;;
58615;SDS011;44385;51.992;4.206;2023-04-08T01:32:07;46.97;;;29.63;;
58615;SDS011;44385;51.992;4.206;2023-04-08T01:34:33;53.40;;;30.55;;
58615;SDS011;44385;51.992;4.206;2023-04-08T01:37:00;58.85;;;34.05;;
58615;SDS011;44385;51.992;4.206;2023-04-08T01:39:27;58.08;;;32.83;;
58615;SDS011;44385;51.992;4.206;2023-04-08T01:41:53;56.00;;;32.53;;
58615;SDS011;44385;51.992;4.206;2023-04-08T01:44:22;56.85;;;32.05;;
58615;SDS011;44385;51.992;4.206;2023-04-08T01:46:49;54.38;;;31.95;;
58615;SDS011;44385;51.992;4.206;2023-04-08T01:49:16;55.30;;;31.70;;
58615;SDS011;44385;51.992;4.206;2023-04-08T01:51:43;54.72;;;29.55;;
58615;SDS011;44385;51.992;4.206;2023-04-08T01:54:10;61.13;;;31.13;;
58615;SDS011;44385;51.992;4.206;2023-04-08T01:56:40;54.30;;;31.17;;
58615;SDS011;44385;51.992;4.206;2023-04-08T01:59:08;52.95;;;29.67;;
58615;SDS011;44385;51.992;4.206;2023-04-08T02:01:36;59.30;;;31.58;;
58615;SDS011;44385;51.992;4.206;2023-04-08T02:04:04;48.63;;;29.48;;
58615;SDS011;44385;51.992;4.206;2023-04-08T02:06:30;49.80;;;29.40;;
58615;SDS011;44385;51.992;4.206;2023-04-08T02:08:58;55.85;;;30.55;;
58615;SDS011;44385;51.992;4.206;2023-04-08T02:11:24;51.38;;;31.02;;
58615;SDS011;44385;51.992;4.206;2023-04-08T02:13:51;49.60;;;28.42;;
58615;SDS011;44385;51.992;4.206;2023-04-08T02:16:18;56.53;;;29.83;;
58615;SDS011;44385;51.992;4.206;2023-04-08T02:18:48;45.15;;;28.65;;
58615;SDS011;44385;51.992;4.206;2023-04-08T02:21:17;49.00;;;27.83;;
58615;SDS011;44385;51.992;4.206;2023-04-08T02:26:14;45.25;;;27.42;;
58615;SDS011;44385;51.992;4.206;2023-04-08T02:28:41;48.63;;;28.02;;
58615;SDS011;44385;51.992;4.206;2023-04-08T02:31:09;42.70;;;25.83;;
58615;SDS011;44385;51.992;4.206;2023-04-08T02:33:37;47.53;;;29.40;;
58615;SDS011;44385;51.992;4.206;2023-04-08T02:36:06;53.22;;;29.55;;
58615;SDS011;44385;51.992;4.206;2023-04-08T02:38:33;41.00;;;25.87;;
58615;SDS011;44385;51.992;4.206;2023-04-08T02:40:59;52.95;;;28.70;;
58615;SDS011;44385;51.992;4.206;2023-04-08T02:43:26;47.08;;;27.95;;
58615;SDS011;44385;51.992;4.206;2023-04-08T02:45:56;47.53;;;28.25;;
58615;SDS011;44385;51.992;4.206;2023-04-08T02:48:23;46.10;;;29.08;;
58615;SDS011;44385;51.992;4.206;2023-04-08T02:50:49;54.83;;;28.70;;
58615;SDS011;44385;51.992;4.206;2023-04-08T02:53:17;49.17;;;29.02;;
58615;SDS011;44385;51.992;4.206;2023-04-08T02:55:43;48.03;;;28.45;;
58615;SDS011;44385;51.992;4.206;2023-04-08T02:58:10;46.45;;;28.17;;
58615;SDS011;44385;51.992;4.206;2023-04-08T03:00:37;49.15;;;29.63;;
58615;SDS011;44385;51.992;4.206;2023-04-08T03:03:04;51.88;;;28.83;;
58615;SDS011;44385;51.992;4.206;2023-04-08T03:05:32;52.78;;;29.63;;
58615;SDS011;44385;51.992;4.206;2023-04-08T03:07:58;50.03;;;28.83;;
58615;SDS011;44385;51.992;4.206;2023-04-08T03:10:26;48.80;;;27.75;;
58615;SDS011;44385;51.992;4.206;2023-04-08T03:12:53;47.40;;;27.90;;
58615;SDS011;44385;51.992;4.206;2023-04-08T03:15:19;47.17;;;27.67;;
58615;SDS011;44385;51.992;4.206;2023-04-08T03:17:45;49.10;;;28.42;;
58615;SDS011;44385;51.992;4.206;2023-04-08T03:20:12;48.33;;;27.63;;
58615;SDS011;44385;51.992;4.206;2023-04-08T03:22:39;44.22;;;26.10;;
58615;SDS011;44385;51.992;4.206;2023-04-08T03:25:05;45.95;;;27.15;;
58615;SDS011;44385;51.992;4.206;2023-04-08T03:27:33;46.20;;;27.50;;
58615;SDS011;44385;51.992;4.206;2023-04-08T03:30:00;42.35;;;27.50;;
58615;SDS011;44385;51.992;4.206;2023-04-08T03:32:26;51.65;;;28.95;;
58615;SDS011;44385;51.992;4.206;2023-04-08T03:34:52;46.20;;;27.75;;
58615;SDS011;44385;51.992;4.206;2023-04-08T03:37:19;51.13;;;29.83;;
58615;SDS011;44385;51.992;4.206;2023-04-08T03:39:45;47.75;;;28.38;;
58615;SDS011;44385;51.992;4.206;2023-04-08T03:42:12;51.10;;;29.35;;
58615;SDS011;44385;51.992;4.206;2023-04-08T03:44:40;49.88;;;28.33;;
58615;SDS011;44385;51.992;4.206;2023-04-08T03:47:06;46.92;;;29.27;;
58615;SDS011;44385;51.992;4.206;2023-04-08T03:49:33;43.28;;;28.13;;
58615;SDS011;44385;51.992;4.206;2023-04-08T03:51:59;44.08;;;27.95;;
58615;SDS011;44385;51.992;4.206;2023-04-08T03:54:26;51.17;;;30.40;;
58615;SDS011;44385;51.992;4.206;2023-04-08T03:56:52;46.72;;;29.58;;
58615;SDS011;44385;51.992;4.206;2023-04-08T03:59:18;47.05;;;29.33;;
58615;SDS011;44385;51.992;4.206;2023-04-08T04:01:46;51.85;;;29.30;;
58615;SDS011;44385;51.992;4.206;2023-04-08T04:04:13;41.13;;;29.05;;
58615;SDS011;44385;51.992;4.206;2023-04-08T04:06:40;49.08;;;29.85;;
58615;SDS011;44385;51.992;4.206;2023-04-08T04:09:06;44.17;;;29.15;;
58615;SDS011;44385;51.992;4.206;2023-04-08T04:11:33;48.58;;;30.98;;
58615;SDS011;44385;51.992;4.206;2023-04-08T04:13:59;49.28;;;32.55;;
58615;SDS011;44385;51.992;4.206;2023-04-08T04:16:26;46.95;;;29.60;;
58615;SDS011;44385;51.992;4.206;2023-04-08T04:18:53;48.40;;;29.02;;
58615;SDS011;44385;51.992;4.206;2023-04-08T04:21:20;51.75;;;30.58;;
58615;SDS011;44385;51.992;4.206;2023-04-08T04:23:46;51.60;;;28.45;;
58615;SDS011;44385;51.992;4.206;2023-04-08T04:26:13;45.50;;;28.60;;
58615;SDS011;44385;51.992;4.206;2023-04-08T04:28:39;46.15;;;28.85;;
58615;SDS011;44385;51.992;4.206;2023-04-08T04:31:06;45.38;;;27.73;;
58615;SDS011;44385;51.992;4.206;2023-04-08T04:33:32;51.67;;;31.42;;
58615;SDS011;44385;51.992;4.206;2023-04-08T04:36:00;48.05;;;29.73;;
58615;SDS011;44385;51.992;4.206;2023-04-08T04:38:26;54.05;;;30.95;;
58615;SDS011;44385;51.992;4.206;2023-04-08T04:40:53;47.03;;;29.85;;
58615;SDS011;44385;51.992;4.206;2023-04-08T04:43:19;52.22;;;32.08;;
58615;SDS011;44385;51.992;4.206;2023-04-08T04:45:46;61.03;;;35.08;;
58615;SDS011;44385;51.992;4.206;2023-04-08T04:48:12;53.75;;;30.80;;
58615;SDS011;44385;51.992;4.206;2023-04-08T04:50:39;58.05;;;32.95;;
58615;SDS011;44385;51.992;4.206;2023-04-08T04:53:07;47.92;;;29.38;;
58615;SDS011;44385;51.992;4.206;2023-04-08T04:55:33;50.55;;;31.02;;
58615;SDS011;44385;51.992;4.206;2023-04-08T04:57:59;56.95;;;32.55;;
58615;SDS011;44385;51.992;4.206;2023-04-08T05:00:26;52.85;;;30.70;;
58615;SDS011;44385;51.992;4.206;2023-04-08T05:02:52;58.95;;;32.65;;
58615;SDS011;44385;51.992;4.206;2023-04-08T05:05:19;58.42;;;32.80;;
58615;SDS011;44385;51.992;4.206;2023-04-08T05:07:45;51.65;;;32.22;;
58615;SDS011;44385;51.992;4.206;2023-04-08T05:10:13;51.28;;;31.85;;
58615;SDS011;44385;51.992;4.206;2023-04-08T05:12:40;50.38;;;30.40;;
58615;SDS011;44385;51.992;4.206;2023-04-08T05:15:06;50.25;;;31.55;;
58615;SDS011;44385;51.992;4.206;2023-04-08T05:17:33;53.10;;;31.90;;
58615;SDS011;44385;51.992;4.206;2023-04-08T05:20:00;53.65;;;31.63;;
58615;SDS011;44385;51.992;4.206;2023-04-08T05:22:26;50.25;;;29.23;;
58615;SDS011;44385;51.992;4.206;2023-04-08T05:24:52;53.92;;;30.10;;
58615;SDS011;44385;51.992;4.206;2023-04-08T05:27:20;56.88;;;30.60;;
58615;SDS011;44385;51.992;4.206;2023-04-08T05:29:47;48.05;;;28.10;;
58615;SDS011;44385;51.992;4.206;2023-04-08T05:32:14;51.00;;;28.88;;
58615;SDS011;44385;51.992;4.206;2023-04-08T05:34:41;48.25;;;28.67;;
58615;SDS011;44385;51.992;4.206;2023-04-08T05:37:07;51.53;;;28.38;;
58615;SDS011;44385;51.992;4.206;2023-04-08T05:39:34;51.38;;;29.15;;
58615;SDS011;44385;51.992;4.206;2023-04-08T05:42:01;48.78;;;27.90;;
58615;SDS011;44385;51.992;4.206;2023-04-08T05:44:28;53.08;;;28.63;;
58615;SDS011;44385;51.992;4.206;2023-04-08T05:46:56;52.28;;;28.73;;
58615;SDS011;44385;51.992;4.206;2023-04-08T05:49:22;50.97;;;28.42;;
58615;SDS011;44385;51.992;4.206;2023-04-08T05:51:49;46.28;;;27.40;;
58615;SDS011;44385;51.992;4.206;2023-04-08T05:54:15;51.42;;;28.45;;
58615;SDS011;44385;51.992;4.206;2023-04-08T05:56:42;49.63;;;28.45;;
58615;SDS011;44385;51.992;4.206;2023-04-08T05:59:10;51.55;;;27.88;;
58615;SDS011;44385;51.992;4.206;2023-04-08T06:01:38;50.78;;;28.27;;
58615;SDS011;44385;51.992;4.206;2023-04-08T06:04:04;44.15;;;26.08;;
58615;SDS011;44385;51.992;4.206;2023-04-08T06:06:31;44.83;;;27.33;;
58615;SDS011;44385;51.992;4.206;2023-04-08T06:08:58;41.83;;;25.17;;
58615;SDS011;44385;51.992;4.206;2023-04-08T06:11:24;44.05;;;25.48;;
58615;SDS011;44385;51.992;4.206;2023-04-08T06:13:50;43.50;;;25.38;;
58615;SDS011;44385;51.992;4.206;2023-04-08T06:16:17;42.40;;;24.55;;
58615;SDS011;44385;51.992;4.206;2023-04-08T06:18:45;41.80;;;25.40;;
58615;SDS011;44385;51.992;4.206;2023-04-08T06:21:11;37.08;;;24.63;;
58615;SDS011;44385;51.992;4.206;2023-04-08T06:23:38;37.03;;;24.05;;
58615;SDS011;44385;51.992;4.206;2023-04-08T06:26:04;37.65;;;24.77;;
58615;SDS011;44385;51.992;4.206;2023-04-08T06:28:31;44.72;;;26.55;;
58615;SDS011;44385;51.992;4.206;2023-04-08T06:30:57;38.65;;;24.42;;
58615;SDS011;44385;51.992;4.206;2023-04-08T06:33:24;38.08;;;24.85;;
58615;SDS011;44385;51.992;4.206;2023-04-08T06:35:58;41.75;;;26.13;;
58615;SDS011;44385;51.992;4.206;2023-04-08T06:38:26;36.65;;;23.35;;
58615;SDS011;44385;51.992;4.206;2023-04-08T06:40:52;41.22;;;24.15;;
58615;SDS011;44385;51.992;4.206;2023-04-08T06:43:18;41.85;;;25.83;;
58615;SDS011;44385;51.992;4.206;2023-04-08T06:45:45;40.70;;;25.02;;
58615;SDS011;44385;51.992;4.206;2023-04-08T06:48:12;41.70;;;26.70;;
58615;SDS011;44385;51.992;4.206;2023-04-08T06:50:38;40.90;;;25.20;;
58615;SDS011;44385;51.992;4.206;2023-04-08T06:53:06;38.13;;;24.75;;
58615;SDS011;44385;51.992;4.206;2023-04-08T06:55:33;43.95;;;27.83;;
58615;SDS011;44385;51.992;4.206;2023-04-08T06:57:59;39.22;;;24.25;;
58615;SDS011;44385;51.992;4.206;2023-04-08T07:00:26;36.58;;;23.73;;
58615;SDS011;44385;51.992;4.206;2023-04-08T07:02:53;37.15;;;24.90;;
58615;SDS011;44385;51.992;4.206;2023-04-08T07:05:19;36.08;;;24.63;;
58615;SDS011;44385;51.992;4.206;2023-04-08T07:07:45;35.85;;;23.67;;
58615;SDS011;44385;51.992;4.206;2023-04-08T07:10:13;36.72;;;22.52;;
58615;SDS011;44385;51.992;4.206;2023-04-08T07:12:40;33.63;;;22.08;;
58615;SDS011;44385;51.992;4.206;2023-04-08T07:15:07;38.30;;;22.67;;
58615;SDS011;44385;51.992;4.206;2023-04-08T07:17:33;37.88;;;24.65;;
58615;SDS011;44385;51.992;4.206;2023-04-08T07:20:00;36.58;;;21.95;;
58615;SDS011;44385;51.992;4.206;2023-04-08T07:22:26;35.67;;;23.27;;
58615;SDS011;44385;51.992;4.206;2023-04-08T07:24:52;38.22;;;24.60;;
58615;SDS011;44385;51.992;4.206;2023-04-08T07:27:20;39.10;;;24.20;;
58615;SDS011;44385;51.992;4.206;2023-04-08T07:29:51;38.45;;;24.33;;
58615;SDS011;44385;51.992;4.206;2023-04-08T07:32:17;45.38;;;27.10;;
58615;SDS011;44385;51.992;4.206;2023-04-08T07:34:43;42.58;;;26.40;;
58615;SDS011;44385;51.992;4.206;2023-04-08T07:37:10;42.75;;;25.30;;
58615;SDS011;44385;51.992;4.206;2023-04-08T07:39:40;39.58;;;25.98;;
58615;SDS011;44385;51.992;4.206;2023-04-08T07:42:06;42.85;;;26.25;;
58615;SDS011;44385;51.992;4.206;2023-04-08T07:44:34;43.20;;;27.05;;
58615;SDS011;44385;51.992;4.206;2023-04-08T07:47:02;45.50;;;26.45;;
58615;SDS011;44385;51.992;4.206;2023-04-08T07:49:28;47.67;;;27.02;;
58615;SDS011;44385;51.992;4.206;2023-04-08T07:51:55;45.15;;;28.45;;
58615;SDS011;44385;51.992;4.206;2023-04-08T07:54:22;45.53;;;27.52;;
58615;SDS011;44385;51.992;4.206;2023-04-08T07:56:48;44.10;;;27.42;;
58615;SDS011;44385;51.992;4.206;2023-04-08T07:59:15;44.35;;;28.40;;
58615;SDS011;44385;51.992;4.206;2023-04-08T08:01:43;44.17;;;28.30;;
58615;SDS011;44385;51.992;4.206;2023-04-08T08:04:10;46.03;;;29.50;;
58615;SDS011;44385;51.992;4.206;2023-04-08T08:06:40;42.15;;;27.10;;
58615;SDS011;44385;51.992;4.206;2023-04-08T08:09:06;41.45;;;28.17;;
58615;SDS011;44385;51.992;4.206;2023-04-08T08:11:32;44.03;;;28.15;;
58615;SDS011;44385;51.992;4.206;2023-04-08T08:13:59;36.63;;;26.02;;
58615;SDS011;44385;51.992;4.206;2023-04-08T08:16:26;42.10;;;28.60;;
58615;SDS011;44385;51.992;4.206;2023-04-08T08:18:54;40.45;;;28.38;;
58615;SDS011;44385;51.992;4.206;2023-04-08T08:21:20;38.58;;;27.60;;
58615;SDS011;44385;51.992;4.206;2023-04-08T08:23:47;38.78;;;28.23;;
58615;SDS011;44385;51.992;4.206;2023-04-08T08:26:15;38.63;;;26.88;;
58615;SDS011;44385;51.992;4.206;2023-04-08T08:28:41;35.08;;;25.65;;
58615;SDS011;44385;51.992;4.206;2023-04-08T08:31:08;38.33;;;26.77;;
58615;SDS011;44385;51.992;4.206;2023-04-08T08:33:35;35.75;;;26.83;;
58615;SDS011;44385;51.992;4.206;2023-04-08T08:36:02;34.42;;;25.15;;
58615;SDS011;44385;51.992;4.206;2023-04-08T08:38:30;35.20;;;25.37;;
58615;SDS011;44385;51.992;4.206;2023-04-08T08:40:57;38.97;;;28.10;;
58615;SDS011;44385;51.992;4.206;2023-04-08T08:43:23;39.45;;;27.92;;
58615;SDS011;44385;51.992;4.206;2023-04-08T08:45:50;40.00;;;28.27;;
58615;SDS011;44385;51.992;4.206;2023-04-08T08:48:16;40.75;;;27.77;;
58615;SDS011;44385;51.992;4.206;2023-04-08T08:50:43;38.22;;;27.58;;
58615;SDS011;44385;51.992;4.206;2023-04-08T08:53:11;38.58;;;26.70;;
58615;SDS011;44385;51.992;4.206;2023-04-08T08:55:40;38.17;;;28.42;;
58615;SDS011;44385;51.992;4.206;2023-04-08T08:58:07;33.75;;;25.77;;
58615;SDS011;44385;51.992;4.206;2023-04-08T09:00:34;35.75;;;26.38;;
58615;SDS011;44385;51.992;4.206;2023-04-08T09:03:14;35.92;;;27.00;;
58615;SDS011;44385;51.992;4.206;2023-04-08T09:05:46;31.88;;;24.98;;
58615;SDS011;44385;51.992;4.206;2023-04-08T09:08:23;29.85;;;23.75;;
58615;SDS011;44385;51.992;4.206;2023-04-08T09:10:50;31.13;;;25.02;;
58615;SDS011;44385;51.992;4.206;2023-04-08T09:13:16;31.27;;;25.15;;
58615;SDS011;44385;51.992;4.206;2023-04-08T09:15:57;28.35;;;23.73;;
58615;SDS011;44385;51.992;4.206;2023-04-08T09:18:25;29.20;;;25.20;;
58615;SDS011;44385;51.992;4.206;2023-04-08T09:20:52;27.67;;;24.17;;
58615;SDS011;44385;51.992;4.206;2023-04-08T09:23:18;26.70;;;22.63;;
58615;SDS011;44385;51.992;4.206;2023-04-08T09:25:46;27.73;;;22.85;;
58615;SDS011;44385;51.992;4.206;2023-04-08T09:28:17;26.60;;;23.80;;
58615;SDS011;44385;51.992;4.206;2023-04-08T09:30:44;26.10;;;23.23;;
58615;SDS011;44385;51.992;4.206;2023-04-08T09:33:11;28.50;;;24.23;;
58615;SDS011;44385;51.992;4.206;2023-04-08T09:35:38;26.65;;;23.92;;
58615;SDS011;44385;51.992;4.206;2023-04-08T09:38:04;28.17;;;23.55;;
58615;SDS011;44385;51.992;4.206;2023-04-08T09:40:31;28.38;;;25.38;;
58615;SDS011;44385;51.992;4.206;2023-04-08T09:43:00;30.23;;;25.75;;
58615;SDS011;44385;51.992;4.206;2023-04-08T09:45:32;30.35;;;26.98;;
58615;SDS011;44385;51.992;4.206;2023-04-08T09:48:09;31.13;;;27.77;;
58615;SDS011;44385;51.992;4.206;2023-04-08T09:50:41;30.83;;;26.45;;
58615;SDS011;44385;51.992;4.206;2023-04-08T09:53:09;28.48;;;25.38;;
58615;SDS011;44385;51.992;4.206;2023-04-08T09:55:39;29.67;;;26.40;;
58615;SDS011;44385;51.992;4.206;2023-04-08T09:58:10;26.83;;;24.00;;
58615;SDS011;44385;51.992;4.206;2023-04-08T10:00:37;25.98;;;23.20;;
58615;SDS011;44385;51.992;4.206;2023-04-08T10:03:06;26.92;;;22.80;;
58615;SDS011;44385;51.992;4.206;2023-04-08T10:05:34;28.73;;;21.92;;
58615;SDS011;44385;51.992;4.206;2023-04-08T10:08:01;26.65;;;22.90;;
58615;SDS011;44385;51.992;4.206;2023-04-08T10:10:28;26.50;;;22.65;;
58615;SDS011;44385;51.992;4.206;2023-04-08T10:12:56;25.73;;;23.13;;
58615;SDS011;44385;51.992;4.206;2023-04-08T10:15:27;23.20;;;20.77;;
58615;SDS011;44385;51.992;4.206;2023-04-08T10:17:55;18.98;;;17.15;;
58615;SDS011;44385;51.992;4.206;2023-04-08T10:20:40;18.60;;;17.00;;
58615;SDS011;44385;51.992;4.206;2023-04-08T10:23:07;18.98;;;17.17;;
58615;SDS011;44385;51.992;4.206;2023-04-08T10:25:35;16.88;;;15.27;;
58615;SDS011;44385;51.992;4.206;2023-04-08T10:28:22;15.75;;;14.35;;
58615;SDS011;44385;51.992;4.206;2023-04-08T10:30:50;16.13;;;14.52;;
58615;SDS011;44385;51.992;4.206;2023-04-08T10:35:47;18.55;;;16.60;;
58615;SDS011;44385;51.992;4.206;2023-04-08T10:38:14;19.27;;;17.38;;
58615;SDS011;44385;51.992;4.206;2023-04-08T10:40:41;19.42;;;17.65;;
58615;SDS011;44385;51.992;4.206;2023-04-08T10:43:09;23.38;;;18.73;;
58615;SDS011;44385;51.992;4.206;2023-04-08T10:45:35;20.25;;;18.17;;
58615;SDS011;44385;51.992;4.206;2023-04-08T10:48:16;22.45;;;19.90;;
58615;SDS011;44385;51.992;4.206;2023-04-08T10:50:43;21.42;;;19.40;;
58615;SDS011;44385;51.992;4.206;2023-04-08T10:53:10;20.83;;;18.75;;
58615;SDS011;44385;51.992;4.206;2023-04-08T10:55:37;20.85;;;18.98;;
58615;SDS011;44385;51.992;4.206;2023-04-08T10:58:04;21.35;;;19.20;;
58615;SDS011;44385;51.992;4.206;2023-04-08T11:00:31;20.40;;;18.42;;
58615;SDS011;44385;51.992;4.206;2023-04-08T11:02:59;19.05;;;17.40;;
58615;SDS011;44385;51.992;4.206;2023-04-08T11:05:26;19.80;;;18.00;;
58615;SDS011;44385;51.992;4.206;2023-04-08T11:07:53;19.58;;;17.88;;
58615;SDS011;44385;51.992;4.206;2023-04-08T11:10:19;19.42;;;17.73;;
58615;SDS011;44385;51.992;4.206;2023-04-08T11:12:46;20.58;;;18.67;;
58615;SDS011;44385;51.992;4.206;2023-04-08T11:15:12;18.67;;;17.08;;
58615;SDS011;44385;51.992;4.206;2023-04-08T11:17:39;18.17;;;16.50;;
58615;SDS011;44385;51.992;4.206;2023-04-08T11:20:07;18.75;;;16.90;;
58615;SDS011;44385;51.992;4.206;2023-04-08T11:22:36;19.47;;;17.67;;
58615;SDS011;44385;51.992;4.206;2023-04-08T11:25:03;19.25;;;17.50;;
58615;SDS011;44385;51.992;4.206;2023-04-08T11:27:32;18.70;;;16.95;;
58615;SDS011;44385;51.992;4.206;2023-04-08T11:29:58;18.75;;;17.02;;
58615;SDS011;44385;51.992;4.206;2023-04-08T11:32:25;18.05;;;16.45;;
58615;SDS011;44385;51.992;4.206;2023-04-08T11:34:53;18.27;;;16.58;;
58615;SDS011;44385;51.992;4.206;2023-04-08T11:37:19;18.23;;;16.63;;
58615;SDS011;44385;51.992;4.206;2023-04-08T11:39:47;18.85;;;17.17;;
58615;SDS011;44385;51.992;4.206;2023-04-08T11:42:26;18.40;;;16.90;;
58615;SDS011;44385;51.992;4.206;2023-04-08T11:44:53;18.08;;;16.48;;
58615;SDS011;44385;51.992;4.206;2023-04-08T11:47:19;18.45;;;16.83;;
58615;SDS011;44385;51.992;4.206;2023-04-08T11:49:46;17.80;;;16.30;;
58615;SDS011;44385;51.992;4.206;2023-04-08T11:52:13;18.52;;;16.65;;
58615;SDS011;44385;51.992;4.206;2023-04-08T11:54:40;16.83;;;15.20;;
58615;SDS011;44385;51.992;4.206;2023-04-08T11:57:08;17.50;;;15.90;;
58615;SDS011;44385;51.992;4.206;2023-04-08T11:59:35;18.25;;;15.65;;
58615;SDS011;44385;51.992;4.206;2023-04-08T12:02:01;16.90;;;15.45;;
58615;SDS011;44385;51.992;4.206;2023-04-08T12:04:28;16.42;;;14.88;;
58615;SDS011;44385;51.992;4.206;2023-04-08T12:06:58;17.40;;;15.80;;
58615;SDS011;44385;51.992;4.206;2023-04-08T12:09:24;17.70;;;16.10;;
58615;SDS011;44385;51.992;4.206;2023-04-08T12:11:51;18.90;;;16.98;;
58615;SDS011;44385;51.992;4.206;2023-04-08T12:14:19;16.88;;;15.23;;
58615;SDS011;44385;51.992;4.206;2023-04-08T12:16:49;17.13;;;15.48;;
58615;SDS011;44385;51.992;4.206;2023-04-08T12:19:16;16.58;;;15.02;;
58615;SDS011;44385;51.992;4.206;2023-04-08T12:21:43;17.48;;;15.57;;
58615;SDS011;44385;51.992;4.206;2023-04-08T12:24:09;17.52;;;15.70;;
58615;SDS011;44385;51.992;4.206;2023-04-08T12:26:36;18.75;;;15.70;;
58615;SDS011;44385;51.992;4.206;2023-04-08T12:29:02;21.48;;;15.57;;
58615;SDS011;44385;51.992;4.206;2023-04-08T12:31:33;17.38;;;15.50;;
58615;SDS011;44385;51.992;4.206;2023-04-08T12:34:00;22.17;;;17.40;;
58615;SDS011;44385;51.992;4.206;2023-04-08T12:36:26;16.40;;;14.90;;
58615;SDS011;44385;51.992;4.206;2023-04-08T12:38:53;17.00;;;15.32;;
58615;SDS011;44385;51.992;4.206;2023-04-08T12:41:20;16.30;;;14.27;;
58615;SDS011;44385;51.992;4.206;2023-04-08T12:43:47;13.93;;;12.57;;
58615;SDS011;44385;51.992;4.206;2023-04-08T12:46:16;15.70;;;14.10;;
58615;SDS011;44385;51.992;4.206;2023-04-08T12:48:44;16.80;;;14.00;;
58615;SDS011;44385;51.992;4.206;2023-04-08T12:51:13;15.10;;;13.70;;
58615;SDS011;44385;51.992;4.206;2023-04-08T12:53:43;15.57;;;13.98;;
58615;SDS011;44385;51.992;4.206;2023-04-08T12:56:09;14.25;;;12.88;;
58615;SDS011;44385;51.992;4.206;2023-04-08T12:58:37;14.48;;;13.07;;
58615;SDS011;44385;51.992;4.206;2023-04-08T13:01:03;14.05;;;12.65;;
58615;SDS011;44385;51.992;4.206;2023-04-08T13:03:30;15.80;;;13.68;;
58615;SDS011;44385;51.992;4.206;2023-04-08T13:06:01;14.55;;;13.25;;
58615;SDS011;44385;51.992;4.206;2023-04-08T13:08:28;14.67;;;13.23;;
58615;SDS011;44385;51.992;4.206;2023-04-08T13:10:58;14.85;;;13.45;;
58615;SDS011;44385;51.992;4.206;2023-04-08T13:13:27;14.80;;;13.40;;
58615;SDS011;44385;51.992;4.206;2023-04-08T13:15:54;15.82;;;14.23;;
58615;SDS011;44385;51.992;4.206;2023-04-08T13:18:20;14.45;;;13.05;;
58615;SDS011;44385;51.992;4.206;2023-04-08T13:20:47;14.05;;;12.73;;
58615;SDS011;44385;51.992;4.206;2023-04-08T13:25:44;14.93;;;13.48;;
58615;SDS011;44385;51.992;4.206;2023-04-08T13:28:10;13.68;;;12.55;;
58615;SDS011;44385;51.992;4.206;2023-04-08T13:30:40;15.73;;;14.27;;
58615;SDS011;44385;51.992;4.206;2023-04-08T13:33:07;15.02;;;13.55;;
58615;SDS011;44385;51.992;4.206;2023-04-08T13:35:34;14.73;;;13.35;;
58615;SDS011;44385;51.992;4.206;2023-04-08T13:38:00;14.77;;;13.27;;
58615;SDS011;44385;51.992;4.206;2023-04-08T13:40:27;15.68;;;13.10;;
58615;SDS011;44385;51.992;4.206;2023-04-08T13:42:55;14.25;;;12.85;;
58615;SDS011;44385;51.992;4.206;2023-04-08T13:45:22;14.57;;;13.18;;
58615;SDS011;44385;51.992;4.206;2023-04-08T13:47:52;14.88;;;13.38;;
58615;SDS011;44385;51.992;4.206;2023-04-08T13:50:19;13.90;;;12.55;;
58615;SDS011;44385;51.992;4.206;2023-04-08T13:52:45;12.88;;;11.70;;
58615;SDS011;44385;51.992;4.206;2023-04-08T13:55:12;15.77;;;14.18;;
58615;SDS011;44385;51.992;4.206;2023-04-08T13:57:40;14.60;;;12.80;;
58615;SDS011;44385;51.992;4.206;2023-04-08T14:00:11;14.43;;;13.00;;
58615;SDS011;44385;51.992;4.206;2023-04-08T14:02:41;15.05;;;13.55;;
58615;SDS011;44385;51.992;4.206;2023-04-08T14:05:07;14.85;;;13.45;;
58615;SDS011;44385;51.992;4.206;2023-04-08T14:07:34;14.65;;;13.25;;
58615;SDS011;44385;51.992;4.206;2023-04-08T14:10:01;14.93;;;13.43;;
58615;SDS011;44385;51.992;4.206;2023-04-08T14:12:27;13.77;;;12.38;;
58615;SDS011;44385;51.992;4.206;2023-04-08T14:14:54;15.45;;;12.85;;
58615;SDS011;44385;51.992;4.206;2023-04-08T14:17:22;14.93;;;13.02;;
58615;SDS011;44385;51.992;4.206;2023-04-08T14:19:52;14.50;;;13.10;;
58615;SDS011;44385;51.992;4.206;2023-04-08T14:22:18;14.65;;;13.15;;
58615;SDS011;44385;51.992;4.206;2023-04-08T14:24:45;15.63;;;14.05;;
58615;SDS011;44385;51.992;4.206;2023-04-08T14:27:14;17.50;;;15.80;;
58615;SDS011;44385;51.992;4.206;2023-04-08T14:29:41;15.23;;;13.82;;